Time;durP1;ratioP1;P1;durP2;ratioP2;P2;SDS_P1;SDS_P2;PMS_P1;PMS_P2;Temp;Humidity;BMP_temperature;BMP_pressure;BME280_temperature;BME280_humidity;BME280_pressure;Samples;Min_cycle;Max_cycle;Signal;HPM_P1;HPM_P2
2021/04/26 00:02:15;;;;;;;4.47;1.05;;;;;;;2.78;53.88;101639.38;5025527;28;20103;-77
2021/04/26 00:04:42;;;;;;;3.90;1.20;;;;;;;2.49;53.71;101627.56;5015737;28;20046;-77
2021/04/26 00:07:08;;;;;;;2.30;1.23;;;;;;;2.37;54.83;101634.59;5024917;28;20049;-77
2021/04/26 00:09:35;;;;;;;3.85;1.10;;;;;;;2.55;53.72;101624.03;5020886;28;20471;-77
2021/04/26 00:12:02;;;;;;;4.97;1.25;;;;;;;2.54;54.22;101628.38;5001864;28;20054;-77
2021/04/26 00:14:29;;;;;;;4.50;1.40;;;;;;;2.42;53.86;101623.28;4988539;28;20050;-78
2021/04/26 00:16:55;;;;;;;4.05;1.73;;;;;;;2.54;54.02;101625.78;5029075;28;20042;-77
2021/04/26 00:19:24;;;;;;;3.45;1.38;;;;;;;2.54;53.83;101625.78;4998432;28;20069;-78
2021/04/26 00:21:51;;;;;;;6.38;1.60;;;;;;;2.71;53.35;101625.59;5016414;28;20124;-74
2021/04/26 00:24:18;;;;;;;3.55;1.42;;;;;;;2.74;52.60;101622.09;5005614;28;20665;-75
2021/04/26 00:26:44;;;;;;;4.43;1.20;;;;;;;2.59;52.68;101625.72;4990714;28;20426;-75
2021/04/26 00:29:11;;;;;;;4.28;1.35;;;;;;;2.36;52.47;101614.69;5008702;28;20060;-74
2021/04/26 00:31:38;;;;;;;6.88;1.70;;;;;;;2.33;53.01;101618.16;5017656;28;20499;-76
2021/04/26 00:34:05;;;;;;;6.10;1.85;;;;;;;2.49;52.92;101614.56;4985233;28;20045;-75
2021/04/26 00:36:32;;;;;;;4.38;1.20;;;;;;;2.65;52.24;101611.78;5019347;28;20557;-75
2021/04/26 00:38:58;;;;;;;2.97;1.02;;;;;;;2.58;52.01;101615.34;5005993;28;20454;-75
2021/04/26 00:41:25;;;;;;;4.63;0.85;;;;;;;2.63;51.51;101610.97;5010907;28;20790;-76
2021/04/26 00:43:52;;;;;;;3.80;1.10;;;;;;;2.47;51.38;101608.50;5021326;28;20057;-75
2021/04/26 00:46:19;;;;;;;3.47;0.98;;;;;;;2.33;52.28;101610.38;5001157;28;20092;-75
2021/04/26 00:48:46;;;;;;;5.88;1.08;;;;;;;2.39;52.22;101609.47;4987863;28;20056;-76
2021/04/26 00:51:13;;;;;;;4.05;0.95;;;;;;;2.36;51.70;101606.91;5014192;28;20177;-76
2021/04/26 00:53:40;;;;;;;3.50;1.17;;;;;;;2.29;51.49;101600.88;4997635;28;20120;-76
2021/04/26 00:56:06;;;;;;;4.20;1.05;;;;;;;2.11;51.78;101601.91;4995445;28;20060;-76
2021/04/26 00:58:33;;;;;;;2.53;1.00;;;;;;;2.02;51.41;101597.63;5002296;28;20052;-76
2021/04/26 01:01:00;;;;;;;2.60;0.98;;;;;;;1.98;51.91;101597.69;5000887;28;20064;-76
2021/04/26 01:03:27;;;;;;;7.88;1.25;;;;;;;1.98;52.35;101588.19;5026915;28;20511;-76
2021/04/26 01:05:54;;;;;;;2.05;0.90;;;;;;;2.14;51.68;101595.84;5004475;28;20108;-76
2021/04/26 01:08:21;;;;;;;3.15;0.98;;;;;;;2.18;50.83;101593.19;4991663;28;20068;-75
2021/04/26 01:10:48;;;;;;;2.63;1.08;;;;;;;2.16;50.94;101583.69;5003453;28;20562;-76
2021/04/26 01:13:40;;;;;;;2.75;1.00;;;;;;;2.15;51.44;101589.75;4986699;28;20137;-76
2021/04/26 01:16:14;;;;;;;2.83;1.10;;;;;;;1.85;51.41;101589.16;5004749;28;20542;-76
2021/04/26 01:18:46;;;;;;;3.17;1.50;;;;;;;2.03;51.16;101580.34;5006931;28;20074;-75
2021/04/26 01:21:27;;;;;;;3.95;0.90;;;;;;;2.04;51.69;101579.47;4988692;28;20053;-76
2021/04/26 01:24:12;;;;;;;2.75;0.90;;;;;;;2.09;51.08;101577.69;4986837;28;20056;-76
2021/04/26 01:26:41;;;;;;;4.35;1.90;;;;;;;2.01;51.84;101576.88;5026067;28;20046;-76
2021/04/26 01:29:35;;;;;;;6.20;1.08;;;;;;;1.88;51.77;101573.53;4999393;28;20057;-76
2021/04/26 01:32:19;;;;;;;3.72;1.33;;;;;;;1.93;51.66;101579.53;4997488;28;20053;-76
2021/04/26 01:34:48;;;;;;;2.65;1.10;;;;;;;1.93;52.12;101576.09;5012528;28;20676;-76
2021/04/26 01:37:15;;;;;;;4.63;0.88;;;;;;;2.09;51.51;101566.44;5002961;28;20119;-76
2021/04/26 01:39:43;;;;;;;6.35;1.40;;;;;;;2.10;51.72;101562.97;4983114;28;20049;-76
2021/04/26 01:42:12;;;;;;;4.93;1.20;;;;;;;2.02;51.27;101555.22;4992550;28;20066;-76
2021/04/26 01:44:38;;;;;;;2.95;1.20;;;;;;;1.87;51.45;101557.97;5027692;28;20267;-76
2021/04/26 01:47:07;;;;;;;3.35;1.05;;;;;;;1.90;51.86;101565.75;5016946;28;20061;-76
2021/04/26 01:49:34;;;;;;;2.00;0.77;;;;;;;1.80;52.03;101551.94;4991870;28;20342;-76
2021/04/26 01:52:02;;;;;;;4.40;1.20;;;;;;;1.88;52.34;101557.09;5004553;28;20435;-76
2021/04/26 01:54:29;;;;;;;3.08;1.00;;;;;;;1.93;52.12;101550.13;4968535;28;20064;-76
2021/04/26 01:56:56;;;;;;;3.65;0.95;;;;;;;1.79;52.86;101555.41;4996953;28;20144;-76
2021/04/26 01:59:23;;;;;;;3.63;1.10;;;;;;;1.91;51.97;101557.06;4988467;28;20110;-75
2021/04/26 02:01:52;;;;;;;3.00;1.08;;;;;;;1.85;52.55;101552.81;5002148;28;20029;-75
2021/04/26 02:04:20;;;;;;;3.65;1.13;;;;;;;1.89;52.85;101551.91;5024981;28;20045;-77
2021/04/26 02:06:50;;;;;;;3.55;0.90;;;;;;;1.93;52.68;101545.78;5006862;28;20165;-75
2021/04/26 02:09:17;;;;;;;3.15;0.90;;;;;;;1.96;53.15;101550.97;5009385;28;20076;-75
2021/04/26 02:11:44;;;;;;;5.50;1.75;;;;;;;1.85;53.61;101558.00;4986134;28;20495;-76
2021/04/26 02:14:11;;;;;;;2.30;0.90;;;;;;;1.89;53.63;101544.13;4984610;28;20038;-75
2021/04/26 02:16:39;;;;;;;2.85;1.15;;;;;;;1.93;54.18;101543.19;5005229;28;20060;-76
2021/04/26 02:19:06;;;;;;;6.15;1.25;;;;;;;2.09;53.81;101541.31;5019088;28;20041;-76
2021/04/26 02:21:33;;;;;;;4.63;0.95;;;;;;;1.94;53.59;101542.34;5021376;28;20366;-76
2021/04/26 02:24:00;;;;;;;15.45;1.65;;;;;;;1.86;54.17;101536.34;5009407;28;20056;-76
2021/04/26 02:26:27;;;;;;;6.20;1.73;;;;;;;1.99;53.69;101534.50;5020251;28;20063;-75
2021/04/26 02:28:53;;;;;;;9.55;1.17;;;;;;;1.86;53.53;101536.34;5023326;28;20060;-76
2021/04/26 02:31:21;;;;;;;2.85;0.93;;;;;;;1.72;54.27;101541.66;5039086;28;20135;-76
2021/04/26 02:34:12;;;;;;;2.70;0.93;;;;;;;1.60;55.54;101543.47;4987068;28;20096;-76
2021/04/26 02:36:44;;;;;;;4.78;1.13;;;;;;;1.54;54.71;101540.94;4994027;28;20053;-76
2021/04/26 02:39:12;;;;;;;3.10;1.00;;;;;;;1.33;55.27;101540.19;4980885;28;20053;-76
2021/04/26 02:41:41;;;;;;;5.65;1.20;;;;;;;1.71;54.67;101537.34;4993431;28;20053;-76
2021/04/26 02:44:18;;;;;;;7.93;1.80;;;;;;;1.66;55.38;101528.69;5022712;28;20073;-77
2021/04/26 02:46:45;;;;;;;3.80;0.90;;;;;;;1.51;54.95;101537.47;5002940;28;20108;-76
2021/04/26 02:49:12;;;;;;;5.72;1.23;;;;;;;1.55;54.78;101538.31;5004766;28;20049;-76
2021/04/26 02:51:39;;;;;;;2.38;1.00;;;;;;;1.60;55.55;101541.72;5034341;28;20064;-76
2021/04/26 02:54:06;;;;;;;6.50;1.13;;;;;;;1.63;54.90;101536.53;5016365;28;20119;-77
2021/04/26 02:56:37;;;;;;;2.67;0.95;;;;;;;1.57;55.42;101530.50;4998285;28;20107;-76
2021/04/26 02:59:06;;;;;;;2.55;1.02;;;;;;;1.48;55.41;101534.88;5008225;28;20045;-76
2021/04/26 03:01:33;;;;;;;3.65;1.00;;;;;;;1.55;55.15;101534.84;5016958;28;20077;-76
2021/04/26 03:04:01;;;;;;;3.10;1.10;;;;;;;1.27;56.20;101535.03;4986989;28;20778;-76
2021/04/26 03:06:27;;;;;;;3.42;1.15;;;;;;;1.16;56.75;101535.09;5005627;28;20583;-76
2021/04/26 03:08:54;;;;;;;4.22;1.10;;;;;;;1.32;56.56;101532.41;5005093;28;20084;-76
2021/04/26 03:11:21;;;;;;;3.00;1.08;;;;;;;1.17;56.48;101538.53;5006934;28;20053;-76
2021/04/26 03:13:48;;;;;;;5.18;0.75;;;;;;;1.04;56.89;101540.38;5012075;28;20077;-76
2021/04/26 03:16:16;;;;;;;4.22;1.10;;;;;;;0.82;57.59;101544.78;5015619;28;20267;-76
2021/04/26 03:18:43;;;;;;;4.28;0.85;;;;;;;0.92;58.14;101543.00;5019971;28;20595;-76
2021/04/26 03:21:11;;;;;;;2.55;0.98;;;;;;;0.82;58.45;101544.78;5016608;28;20056;-76
2021/04/26 03:23:39;;;;;;;4.03;1.30;;;;;;;0.76;58.42;101543.03;5016567;28;20154;-76
2021/04/26 03:26:06;;;;;;;1.95;0.90;;;;;;;0.88;57.88;101552.50;5012256;28;20066;-76
2021/04/26 03:28:35;;;;;;;4.75;1.00;;;;;;;0.89;57.43;101546.47;4985885;28;20804;-76
2021/04/26 03:31:03;;;;;;;3.63;0.95;;;;;;;1.07;57.73;101547.25;4998687;28;20131;-76
2021/04/26 03:33:32;;;;;;;6.60;1.70;;;;;;;1.15;56.94;101542.88;4985553;28;20125;-76
2021/04/26 03:36:00;;;;;;;3.90;0.77;;;;;;;0.89;57.59;101546.47;5009867;28;20041;-75
2021/04/26 03:38:27;;;;;;;2.83;1.00;;;;;;;0.71;58.48;101542.22;5035330;28;20076;-73
2021/04/26 03:40:55;;;;;;;5.18;1.42;;;;;;;0.73;58.71;101543.06;4986165;28;20061;-74
2021/04/26 03:43:21;;;;;;;3.88;1.10;;;;;;;0.86;58.48;101545.63;4986481;28;20045;-74
2021/04/26 03:45:49;;;;;;;3.38;0.90;;;;;;;0.84;58.59;101547.34;5019415;28;20141;-73
2021/04/26 03:48:16;;;;;;;2.60;0.95;;;;;;;0.89;58.34;101549.06;5022461;28;20136;-73
2021/04/26 03:50:42;;;;;;;1.38;0.95;;;;;;;0.78;58.44;101539.63;5021921;28;20676;-74
2021/04/26 03:53:09;;;;;;;2.70;1.08;;;;;;;0.84;59.24;101543.03;4999347;28;20045;-74
2021/04/26 03:55:36;;;;;;;3.70;1.10;;;;;;;0.97;58.73;101551.63;4987622;28;20140;-74
2021/04/26 03:58:04;;;;;;;4.75;1.15;;;;;;;0.95;59.43;101548.19;5019177;28;20141;-74
2021/04/26 04:00:31;;;;;;;1.98;1.00;;;;;;;1.15;58.75;101542.88;5016161;28;20188;-73
2021/04/26 04:02:58;;;;;;;3.47;1.73;;;;;;;1.24;58.28;101548.03;5027867;28;20529;-73
2021/04/26 04:05:25;;;;;;;3.05;0.90;;;;;;;1.01;59.22;101554.19;5001931;28;20095;-74
2021/04/26 04:07:52;;;;;;;4.88;0.95;;;;;;;1.13;58.58;101550.69;5020911;28;20114;-74
2021/04/26 04:10:19;;;;;;;3.13;1.50;;;;;;;1.04;58.85;101552.44;5027121;28;20049;-74
2021/04/26 04:12:45;;;;;;;6.07;1.15;;;;;;;1.05;59.22;101556.78;5035494;28;20097;-74
2021/04/26 04:15:12;;;;;;;4.00;1.50;;;;;;;1.32;58.75;101555.75;5023341;28;20054;-74
2021/04/26 04:17:39;;;;;;;3.95;1.67;;;;;;;1.15;58.37;101559.31;5023387;28;20057;-73
2021/04/26 04:20:08;;;;;;;2.55;0.90;;;;;;;1.21;58.80;101564.44;5016956;28;20088;-74
2021/04/26 04:22:35;;;;;;;8.23;1.55;;;;;;;1.17;58.82;101549.81;5043858;28;20091;-74
2021/04/26 04:25:03;;;;;;;5.10;1.13;;;;;;;1.24;58.62;101555.81;5025109;28;20443;-74
2021/04/26 04:27:30;;;;;;;3.70;1.17;;;;;;;1.30;58.65;101552.31;5013325;28;20053;-74
2021/04/26 04:29:56;;;;;;;3.97;1.02;;;;;;;1.42;57.83;101549.63;5023693;28;20130;-74
2021/04/26 04:32:23;;;;;;;9.05;3.38;;;;;;;2.41;55.82;101548.81;5008020;28;20105;-74
2021/04/26 04:34:50;;;;;;;11.13;1.63;;;;;;;3.45;53.01;101542.28;5023002;28;20217;-74
2021/04/26 04:37:17;;;;;;;5.63;1.20;;;;;;;3.98;50.94;101537.97;5035657;28;20122;-74
2021/04/26 04:39:43;;;;;;;3.70;1.20;;;;;;;4.78;49.41;101541.69;5018210;28;20095;-74
2021/04/26 04:42:11;;;;;;;3.90;1.45;;;;;;;5.69;46.30;101535.34;5032187;28;21331;-74
2021/04/26 04:44:38;;;;;;;4.93;1.33;;;;;;;6.55;44.39;101534.00;5013526;28;20053;-75
2021/04/26 04:47:05;;;;;;;7.13;1.48;;;;;;;7.54;42.24;101538.03;5021472;28;20125;-75
2021/04/26 04:49:32;;;;;;;6.55;1.80;;;;;;;8.29;40.08;101525.06;5013575;28;20148;-76
2021/04/26 04:51:58;;;;;;;3.88;1.45;;;;;;;9.29;37.83;101523.09;5006613;28;20559;-76
2021/04/26 04:54:25;;;;;;;6.40;1.40;;;;;;;9.01;38.53;101530.34;4993903;28;20069;-76
2021/04/26 04:56:53;;;;;;;6.35;1.50;;;;;;;9.03;38.19;101524.09;5006424;28;20045;-75
2021/04/26 04:59:20;;;;;;;5.22;1.58;;;;;;;8.95;38.20;101531.41;5005656;28;20122;-76
2021/04/26 05:01:47;;;;;;;5.93;1.60;;;;;;;9.91;36.16;101526.75;5023450;28;20059;-75
2021/04/26 05:04:15;;;;;;;9.93;1.30;;;;;;;8.86;37.89;101529.97;5023523;28;20085;-75
2021/04/26 05:06:42;;;;;;;3.33;1.58;;;;;;;9.00;38.14;101533.84;5010638;28;20121;-77
2021/04/26 05:09:09;;;;;;;9.48;1.40;;;;;;;10.86;34.33;101525.25;5029957;28;20431;-78
2021/04/26 05:11:36;;;;;;;4.25;1.35;;;;;;;11.16;33.46;101525.59;4990845;28;20432;-79
2021/04/26 05:14:03;;;;;;;4.18;1.38;;;;;;;9.77;35.10;101526.44;5007738;28;20297;-78
2021/04/26 05:16:31;;;;;;;3.70;1.60;;;;;;;10.14;34.91;101531.03;5003253;28;20116;-78
2021/04/26 05:19:00;;;;;;;3.38;1.50;;;;;;;9.89;35.19;101525.94;5004904;28;20460;-78
2021/04/26 05:21:27;;;;;;;5.22;1.77;;;;;;;11.96;32.27;101521.75;4999782;28;21303;-77
2021/04/26 05:23:55;;;;;;;6.80;2.00;;;;;;;11.39;33.23;101521.84;5016990;28;20120;-79
2021/04/26 05:26:24;;;;;;;3.00;1.40;;;;;;;11.45;32.99;101534.75;5007360;28;20148;-79
2021/04/26 05:28:51;;;;;;;3.45;1.58;;;;;;;12.32;31.15;101516.38;5018799;28;20054;-79
2021/04/26 05:31:19;;;;;;;4.25;1.23;;;;;;;11.70;32.37;101518.59;4999856;28;20099;-78
2021/04/26 05:33:46;;;;;;;7.40;1.67;;;;;;;12.47;31.13;101515.56;5005666;28;20041;-79
2021/04/26 05:36:13;;;;;;;5.47;1.70;;;;;;;13.12;30.59;101518.25;5023458;28;20114;-78
2021/04/26 05:38:40;;;;;;;4.10;1.65;;;;;;;13.00;30.18;101518.91;5000986;28;20673;-77
2021/04/26 05:41:06;;;;;;;4.72;1.30;;;;;;;12.94;30.50;101520.09;5015162;28;20053;-80
2021/04/26 05:43:33;;;;;;;6.10;1.85;;;;;;;11.25;32.82;101521.66;5005802;28;20050;-83
2021/04/26 05:46:00;;;;;;;5.95;1.80;;;;;;;12.41;31.53;101515.91;5003918;28;20068;-77
2021/04/26 05:48:27;;;;;;;3.97;1.65;;;;;;;11.15;33.09;101522.09;4993342;28;20045;-80
2021/04/26 05:50:54;;;;;;;7.43;1.70;;;;;;;9.66;36.84;101523.41;5013348;28;20547;-80
2021/04/26 05:53:24;;;;;;;4.53;1.55;;;;;;;12.73;32.07;101516.81;5035941;28;20073;-77
2021/04/26 05:55:51;;;;;;;2.95;1.30;;;;;;;12.74;30.83;101518.53;5018298;28;20045;-79
2021/04/26 05:58:18;;;;;;;4.97;1.30;;;;;;;11.02;34.08;101526.22;5005548;28;20168;-77
2021/04/26 06:00:45;;;;;;;9.80;1.58;;;;;;;13.23;30.82;101518.53;4999805;28;20095;-79
2021/04/26 06:03:11;;;;;;;7.70;1.73;;;;;;;14.56;28.44;101512.53;5002900;28;20143;-76
2021/04/26 06:05:38;;;;;;;9.20;1.50;;;;;;;13.92;29.22;101517.25;4999806;28;20037;-76
2021/04/26 06:08:09;;;;;;;8.13;1.50;;;;;;;12.23;32.47;101519.50;4997069;28;20045;-76
2021/04/26 06:10:36;;;;;;;5.95;1.38;;;;;;;11.93;32.58;101519.25;5023662;28;20095;-77
2021/04/26 06:13:03;;;;;;;4.95;1.38;;;;;;;12.57;32.03;101516.81;4998353;28;20144;-78
2021/04/26 06:15:30;;;;;;;6.65;2.00;;;;;;;14.61;29.31;101516.63;4997593;28;20068;-79
2021/04/26 06:18:11;;;;;;;8.23;1.60;;;;;;;16.02;26.57;101506.66;5014069;28;20045;-77
2021/04/26 06:20:39;;;;;;;3.47;1.30;;;;;;;16.44;26.15;101506.38;5013210;28;20052;-76
2021/04/26 06:23:06;;;;;;;3.97;1.40;;;;;;;15.52;27.26;101513.50;5008477;28;20910;-79
2021/04/26 06:25:35;;;;;;;8.38;2.33;;;;;;;13.38;31.02;101514.19;5016556;28;20092;-79
2021/04/26 06:28:03;;;;;;;6.32;1.13;;;;;;;14.76;28.84;101516.59;5006235;28;20050;-78
2021/04/26 06:30:30;;;;;;;8.20;2.55;;;;;;;13.63;30.37;101522.41;5003392;28;20056;-78
2021/04/26 06:32:58;;;;;;;5.85;1.00;;;;;;;12.98;31.25;101520.81;5038251;28;20045;-81
2021/04/26 06:35:25;;;;;;;4.13;1.10;;;;;;;15.09;28.21;101514.50;5035909;28;20053;-83
2021/04/26 06:37:54;;;;;;;3.15;1.10;;;;;;;14.03;29.22;101520.09;5036232;28;20085;-79
2021/04/26 06:40:21;;;;;;;6.80;1.40;;;;;;;13.62;30.38;101527.81;5019916;28;20076;-78
2021/04/26 06:42:48;;;;;;;5.20;1.58;;;;;;;15.13;27.89;101510.69;5005952;28;20132;-77
2021/04/26 06:45:21;;;;;;;2.83;1.60;;;;;;;15.64;27.87;101516.25;5017922;28;20523;-77
2021/04/26 06:47:48;;;;;;;4.15;1.55;;;;;;;16.04;26.63;101500.31;5010958;28;20075;-77
2021/04/26 06:50:15;;;;;;;4.13;1.00;;;;;;;16.91;25.21;101502.22;5002096;28;20053;-77
2021/04/26 06:52:42;;;;;;;7.30;1.08;;;;;;;18.88;22.57;101505.09;5005202;28;20061;-78
2021/04/26 06:55:10;;;;;;;3.70;1.05;;;;;;;17.39;24.39;101504.94;5026182;28;20508;-77
2021/04/26 06:57:37;;;;;;;4.18;1.17;;;;;;;18.93;22.64;101497.56;5025514;28;20108;-78
2021/04/26 07:00:05;;;;;;;5.82;1.40;;;;;;;19.14;22.64;101499.47;5030723;28;20103;-80
2021/04/26 07:02:32;;;;;;;7.75;1.67;;;;;;;18.33;23.08;101496.09;5013395;28;20046;-77
2021/04/26 07:05:00;;;;;;;3.95;1.13;;;;;;;14.62;27.50;101501.56;5011293;28;20061;-80
2021/04/26 07:07:26;;;;;;;8.43;2.45;;;;;;;13.49;29.35;101511.75;5039849;28;20053;-82
2021/04/26 07:09:53;;;;;;;4.18;1.00;;;;;;;15.74;26.04;101497.06;5008514;28;20101;-79
2021/04/26 07:12:20;;;;;;;3.45;1.30;;;;;;;15.28;26.27;101497.41;5039986;28;20046;-77
2021/04/26 07:14:46;;;;;;;2.28;1.00;;;;;;;13.84;28.35;101499.16;4999913;28;20052;-79
2021/04/26 07:17:19;;;;;;;5.25;1.40;;;;;;;14.32;27.94;101489.22;5013049;28;20126;-77
2021/04/26 07:19:46;;;;;;;8.38;0.95;;;;;;;16.84;24.72;101486.78;4993271;28;20112;-79
2021/04/26 07:22:13;;;;;;;3.53;1.02;;;;;;;17.93;22.75;101483.16;5027101;28;20173;-76
2021/04/26 07:24:40;;;;;;;6.68;1.23;;;;;;;18.11;22.94;101477.38;5013834;28;20064;-79
2021/04/26 07:27:07;;;;;;;8.10;1.65;;;;;;;19.82;20.40;101482.28;4995902;28;20128;-76
2021/04/26 07:29:34;;;;;;;6.85;1.33;;;;;;;19.87;20.20;101480.06;5029812;28;20053;-79
2021/04/26 07:32:00;;;;;;;3.65;1.38;;;;;;;19.69;20.88;101478.94;5032306;28;20133;-82
2021/04/26 07:34:27;;;;;;;3.13;1.05;;;;;;;19.70;20.41;101483.28;5027399;28;20139;-80
2021/04/26 07:36:54;;;;;;;5.13;1.10;;;;;;;19.34;20.98;101476.47;5035077;28;20045;-76
2021/04/26 07:39:21;;;;;;;1.35;0.68;;;;;;;17.55;22.56;101477.16;4998030;28;20069;-77
2021/04/26 07:41:48;;;;;;;4.00;1.02;;;;;;;18.10;21.88;101481.00;5005651;28;20050;-79
2021/04/26 07:44:15;;;;;;;1.88;1.02;;;;;;;16.90;21.70;101481.06;5011911;28;20240;-77
2021/04/26 07:46:41;;;;;;;3.00;0.65;;;;;;;16.85;21.93;101484.03;5033479;28;20061;-78
2021/04/26 07:49:08;;;;;;;3.42;1.65;;;;;;;17.45;21.41;101480.53;5012281;28;20115;-79
2021/04/26 07:51:35;;;;;;;2.38;1.00;;;;;;;15.51;23.40;101482.63;5034247;28;20045;-77
2021/04/26 07:54:02;;;;;;;2.78;0.70;;;;;;;17.89;21.16;101483.50;5013142;28;20053;-77
2021/04/26 07:56:31;;;;;;;3.97;0.80;;;;;;;19.49;19.43;101478.72;5039575;28;20057;-78
2021/04/26 07:58:57;;;;;;;2.50;0.70;;;;;;;16.96;21.84;101492.09;5019304;28;20045;-80
2021/04/26 08:01:24;;;;;;;2.13;0.80;;;;;;;14.85;24.11;101485.06;5015832;28;20061;-77
2021/04/26 08:03:51;;;;;;;4.57;0.90;;;;;;;15.49;23.51;101487.16;5004926;28;20069;-78
2021/04/26 08:06:19;;;;;;;2.22;0.90;;;;;;;16.64;22.86;101477.56;5020394;28;20081;-81
2021/04/26 08:08:46;;;;;;;4.25;1.10;;;;;;;18.00;21.17;101472.03;5036701;28;20141;-76
2021/04/26 08:11:13;;;;;;;3.55;0.88;;;;;;;18.26;20.89;101473.53;5038671;28;20084;-79
2021/04/26 08:13:40;;;;;;;6.38;1.02;;;;;;;18.23;20.92;101468.41;5019925;28;20459;-78
2021/04/26 08:16:09;;;;;;;4.90;0.90;;;;;;;18.89;19.98;101463.25;5039594;28;20110;-82
2021/04/26 08:18:35;;;;;;;4.70;0.90;;;;;;;19.68;18.89;101461.22;5034109;28;20061;-84
2021/04/26 08:21:02;;;;;;;5.43;1.38;;;;;;;17.90;20.37;101470.06;5048394;28;20049;-80
2021/04/26 08:23:30;;;;;;;2.92;1.58;;;;;;;18.23;20.27;101463.94;4987933;28;20081;-78
2021/04/26 08:25:57;;;;;;;3.80;0.95;;;;;;;18.82;19.62;101454.91;5020308;28;20083;-78
2021/04/26 08:28:26;;;;;;;5.20;1.30;;;;;;;19.52;19.09;101447.41;5026792;28;20046;-78
2021/04/26 08:30:52;;;;;;;4.93;1.10;;;;;;;18.09;20.34;101455.31;5012658;28;20155;-82
2021/04/26 08:33:20;;;;;;;4.45;0.90;;;;;;;19.18;19.46;101455.53;5023136;28;20109;-77
2021/04/26 08:35:47;;;;;;;3.17;0.85;;;;;;;16.65;22.19;101463.28;5041768;28;20129;-79
2021/04/26 08:38:14;;;;;;;3.53;0.70;;;;;;;14.30;24.25;101469.06;5029721;28;20081;-79
2021/04/26 08:40:40;;;;;;;3.63;0.90;;;;;;;13.28;26.19;101479.44;5020896;28;20140;-78
2021/04/26 08:43:08;;;;;;;3.53;0.98;;;;;;;11.85;27.87;101469.53;5013569;28;20064;-78
2021/04/26 08:45:35;;;;;;;2.25;1.00;;;;;;;11.27;27.59;101481.13;5017468;28;20136;-77
2021/04/26 08:48:03;;;;;;;7.97;1.23;;;;;;;10.50;28.74;101472.47;5011200;28;20172;-78
2021/04/26 08:50:31;;;;;;;2.00;0.70;;;;;;;9.56;30.83;101473.81;5012510;28;20526;-78
2021/04/26 08:52:57;;;;;;;1.40;0.80;;;;;;;9.91;30.74;101471.50;5016486;28;20140;-78
2021/04/26 08:55:24;;;;;;;7.20;1.00;;;;;;;10.00;30.90;101471.09;5034736;28;20120;-78
2021/04/26 08:57:51;;;;;;;2.53;0.82;;;;;;;9.86;30.43;101469.06;5014640;28;20049;-78
2021/04/26 09:00:18;;;;;;;4.53;1.00;;;;;;;9.15;30.81;101469.38;5008751;28;20045;-77
2021/04/26 09:02:54;;;;;;;3.70;1.10;;;;;;;10.08;30.04;101468.13;5008792;28;20084;-76
2021/04/26 09:05:34;;;;;;;9.63;1.52;;;;;;;9.39;31.32;101463.13;5006480;28;20128;-77
2021/04/26 09:08:07;;;;;;;7.25;1.10;;;;;;;9.45;31.59;101462.03;5021928;28;20070;-77
2021/04/26 09:10:48;;;;;;;8.82;1.20;;;;;;;9.83;30.31;101457.81;5029127;28;20133;-77
2021/04/26 09:13:45;;;;;;;12.98;1.00;;;;;;;10.67;28.59;101458.50;5022798;28;20046;-79
2021/04/26 09:16:20;;;;;;;3.47;0.50;;;;;;;11.45;27.34;101450.38;5034170;28;20063;-77
2021/04/26 09:18:56;;;;;;;2.85;0.80;;;;;;;11.44;27.30;101459.25;5013635;28;20053;-80
2021/04/26 09:21:25;;;;;;;2.85;1.30;;;;;;;11.19;27.10;101462.19;5033273;28;20132;-79
2021/04/26 09:24:24;;;;;;;3.75;1.13;;;;;;;10.82;26.73;101461.31;5008984;28;20212;-76
2021/04/26 09:27:10;;;;;;;1.50;0.57;;;;;;;10.61;27.54;101449.13;5023206;28;20118;-77
2021/04/26 09:29:38;;;;;;;6.03;0.80;;;;;;;10.58;27.89;101454.53;5005517;28;20117;-79
2021/04/26 09:32:14;;;;;;;1.25;0.70;;;;;;;10.84;27.59;101446.28;5007992;28;20481;-78
2021/04/26 09:34:41;;;;;;;;;;;;;;;10.15;28.86;101445.91;5011431;28;20064;-77
2021/04/26 09:37:13;;;;;;;6.00;1.00;;;;;;;9.53;30.10;101439.78;5024640;28;19921;-76
2021/04/26 09:40:12;;;;;;;6.10;1.00;;;;;;;9.90;30.18;101436.44;5007595;28;20108;-78
2021/04/26 09:42:53;;;;;;;7.88;1.30;;;;;;;10.45;29.17;101440.25;4995582;28;20057;-77
2021/04/26 09:45:21;;;;;;;5.32;1.02;;;;;;;10.95;29.32;101440.53;4992112;28;20045;-77
2021/04/26 09:47:50;;;;;;;7.20;1.08;;;;;;;10.95;29.51;101439.66;5004184;28;20916;-77
2021/04/26 09:50:17;;;;;;;2.50;1.00;;;;;;;11.38;29.38;101428.72;5016846;28;20141;-78
2021/04/26 09:52:44;;;;;;;2.70;0.80;;;;;;;10.98;29.58;101442.97;5032077;28;20068;-77
2021/04/26 09:55:28;;;;;;;1.92;0.93;;;;;;;11.41;29.53;101430.38;5012841;28;20152;-78
2021/04/26 09:57:55;;;;;;;1.42;0.65;;;;;;;11.47;29.13;101430.06;5029099;28;20050;-79
2021/04/26 10:00:22;;;;;;;3.67;1.00;;;;;;;11.19;30.05;101429.72;5022024;28;20058;-78
2021/04/26 10:02:49;;;;;;;6.80;1.77;;;;;;;11.04;29.70;101426.91;5010147;28;20105;-78
2021/04/26 10:05:17;;;;;;;5.72;1.45;;;;;;;9.86;31.25;101429.63;5012977;28;20141;-76
2021/04/26 10:07:48;;;;;;;6.65;1.15;;;;;;;9.31;31.41;101428.44;5026553;28;20053;-77
2021/04/26 10:10:15;;;;;;;6.28;1.08;;;;;;;9.36;30.74;101429.09;5000129;28;20053;-77
2021/04/26 10:12:43;;;;;;;3.65;1.00;;;;;;;9.57;30.51;101427.38;5023072;28;20603;-78
2021/04/26 10:15:12;;;;;;;3.15;0.85;;;;;;;10.53;28.77;101431.03;5009727;28;20161;-77
2021/04/26 10:17:42;;;;;;;3.17;0.90;;;;;;;11.03;27.76;101424.31;4988433;28;20486;-77
2021/04/26 10:20:11;;;;;;;6.93;1.38;;;;;;;11.18;28.40;101423.59;5024051;28;20065;-78
2021/04/26 10:22:40;;;;;;;2.13;0.75;;;;;;;10.90;28.56;101426.72;5010794;28;20057;-77
2021/04/26 10:25:09;;;;;;;4.30;0.90;;;;;;;11.00;28.54;101421.84;5025029;28;20140;-76
2021/04/26 10:27:40;;;;;;;4.18;0.80;;;;;;;10.72;29.25;101415.28;4984409;28;20150;-77
2021/04/26 10:30:14;;;;;;;2.75;0.85;;;;;;;11.07;28.36;101412.72;5004461;28;20045;-78
2021/04/26 10:33:03;;;;;;;3.95;1.05;;;;;;;11.40;28.59;101405.81;4993599;28;20049;-78
2021/04/26 10:35:47;;;;;;;4.85;1.65;;;;;;;11.48;27.87;101404.53;5008422;28;20049;-78
2021/04/26 10:38:34;;;;;;;6.82;2.00;;;;;;;11.19;28.22;101400.72;5014042;28;20053;-81
2021/04/26 10:41:03;;;;;;;3.97;0.75;;;;;;;10.43;30.15;101405.22;5031109;28;20084;-77
2021/04/26 10:43:31;;;;;;;3.88;0.98;;;;;;;10.08;30.46;101403.22;5018102;28;20045;-79
2021/04/26 10:46:13;;;;;;;1.75;0.77;;;;;;;9.67;30.86;101393.66;5083609;22;20116;-84
2021/04/26 10:49:08;;;;;;;3.63;0.98;;;;;;;10.31;30.44;101388.19;5085810;28;20052;-84
2021/04/26 10:51:36;;;;;;;4.22;1.52;;;;;;;10.80;30.06;101388.53;5066276;28;20040;-83
2021/04/26 10:54:05;;;;;;;3.65;0.75;;;;;;;11.02;28.46;101376.03;5095029;28;20476;-84
2021/04/26 10:56:34;;;;;;;3.53;1.05;;;;;;;10.95;28.02;101372.03;5075977;28;20770;-84
2021/04/26 10:59:17;;;;;;;1.38;0.65;;;;;;;11.08;28.65;101373.13;5077953;28;20101;-83
2021/04/26 11:01:45;;;;;;;5.18;1.10;;;;;;;11.60;28.42;101380.19;5097743;28;20076;-84
2021/04/26 11:04:13;;;;;;;8.40;1.02;;;;;;;11.32;29.50;101378.97;5085498;22;21081;-68
2021/04/26 11:06:39;;;;;;;3.22;0.80;;;;;;;11.01;29.67;101382.25;5029404;28;20053;-68
2021/04/26 11:09:13;;;;;;;4.45;0.93;;;;;;;11.56;28.63;101370.72;5029759;28;20053;-71
2021/04/26 11:11:51;;;;;;;7.45;1.20;;;;;;;11.98;28.26;101362.44;4992588;28;20507;-68
2021/04/26 11:14:23;;;;;;;4.00;0.90;;;;;;;11.53;28.62;101366.50;5035578;28;20155;-69
2021/04/26 11:16:57;;;;;;;2.63;1.17;;;;;;;11.27;28.10;101361.69;5051525;28;20041;-68
2021/04/26 11:19:24;;;;;;;1.90;0.90;;;;;;;10.06;29.79;101359.50;5051666;28;20944;-71
2021/04/26 11:21:53;;;;;;;3.53;0.90;;;;;;;10.54;29.07;101363.47;5014127;28;20490;-69
2021/04/26 11:24:23;;;;;;;1.60;0.80;;;;;;;10.44;28.69;101355.13;5045354;28;20853;-71
2021/04/26 11:27:08;;;;;;;3.60;1.10;;;;;;;10.07;28.89;101364.66;5031409;28;20541;-69
2021/04/26 11:29:37;;;;;;;2.85;0.77;;;;;;;9.88;29.96;101350.66;5048122;28;20048;-69
2021/04/26 11:32:05;;;;;;;4.30;1.05;;;;;;;9.71;30.57;101346.13;4999733;28;20076;-67
2021/04/26 11:34:46;;;;;;;3.00;0.82;;;;;;;9.60;31.53;101349.22;5031104;28;20055;-68
2021/04/26 11:37:16;;;;;;;2.33;1.08;;;;;;;9.45;31.79;101347.25;5039079;28;20073;-68
2021/04/26 11:39:43;;;;;;;6.15;1.02;;;;;;;9.68;31.39;101346.28;5034871;28;20159;-68